createdAt,value
2024-03-09T00:01:49.234Z,2.40
2024-03-09T00:03:50.814Z,2.39
2024-03-09T00:05:52.394Z,2.42
2024-03-09T00:07:55.668Z,2.42
2024-03-09T00:09:57.247Z,2.42
2024-03-09T00:11:58.783Z,2.43
2024-03-09T00:14:00.440Z,2.48
2024-03-09T00:16:03.729Z,2.56
2024-03-09T00:18:05.729Z,2.57
2024-03-09T00:20:08.990Z,2.63
2024-03-09T00:22:10.570Z,2.67
2024-03-09T00:24:12.098Z,2.72
2024-03-09T00:26:13.903Z,2.62
2024-03-09T00:28:15.530Z,2.69
2024-03-09T00:30:17.255Z,2.71
2024-03-09T00:32:20.207Z,2.58
2024-03-09T00:34:21.747Z,2.60
2024-03-09T00:36:23.289Z,2.45
2024-03-09T00:38:24.865Z,2.48
2024-03-09T00:40:27.739Z,2.47
2024-03-09T00:42:29.357Z,2.39
2024-03-09T00:44:30.956Z,2.34
2024-03-09T00:46:32.562Z,2.40
2024-03-09T00:48:35.443Z,2.50
2024-03-09T00:50:36.977Z,2.55
2024-03-09T00:52:39.077Z,2.59
2024-03-09T00:54:40.669Z,2.56
2024-03-09T00:56:42.238Z,2.59
2024-03-09T00:58:43.832Z,2.54
2024-03-09T01:00:45.390Z,2.62
2024-03-09T01:02:49.214Z,2.79
2024-03-09T01:04:52.228Z,2.68
2024-03-09T01:06:53.842Z,2.76
2024-03-09T01:08:55.383Z,2.66
2024-03-09T01:10:57.398Z,2.53
2024-03-09T01:12:59.017Z,2.53
2024-03-09T01:15:00.687Z,2.49
2024-03-09T01:17:02.285Z,2.60
2024-03-09T01:19:03.850Z,2.70
2024-03-09T01:21:06.923Z,2.61
2024-03-09T01:23:08.537Z,2.48
2024-03-09T01:25:10.355Z,2.43
2024-03-09T01:27:11.893Z,2.33
2024-03-09T01:29:13.627Z,2.32
2024-03-09T01:31:15.274Z,2.37
2024-03-09T01:33:16.894Z,2.34
2024-03-09T01:35:18.637Z,2.48
2024-03-09T01:37:21.606Z,2.54
2024-03-09T01:39:23.367Z,2.58
2024-03-09T01:41:25.048Z,2.52
2024-03-09T01:43:26.715Z,2.53
2024-03-09T01:45:28.298Z,2.49
2024-03-09T01:47:29.886Z,2.55
2024-03-09T01:49:31.966Z,2.53
2024-03-09T01:51:33.920Z,2.51
2024-03-09T01:53:38.958Z,2.14
2024-03-09T01:55:41.033Z,2.38
2024-03-09T01:57:42.661Z,2.38
2024-03-09T01:59:48.194Z,2.46
2024-03-09T02:01:49.890Z,2.53
2024-03-09T02:03:55.858Z,2.46
2024-03-09T02:05:57.515Z,2.54
2024-03-09T02:07:59.113Z,2.56
2024-03-09T02:10:02.168Z,2.58
2024-03-09T02:12:04.931Z,2.63
2024-03-09T02:14:06.647Z,2.61
2024-03-09T02:16:08.339Z,2.63
2024-03-09T02:18:09.934Z,2.72
2024-03-09T02:20:12.381Z,2.75
2024-03-09T02:22:16.369Z,2.65
2024-03-09T02:24:21.740Z,2.63
2024-03-09T02:26:25.096Z,2.66
2024-03-09T02:28:26.685Z,2.59
2024-03-09T02:30:28.313Z,2.68
2024-03-09T02:32:30.822Z,2.57
2024-03-09T02:34:32.543Z,2.73
2024-03-09T02:36:35.175Z,2.73
2024-03-09T02:38:36.743Z,2.67
2024-03-09T02:40:38.460Z,2.72
2024-03-09T02:42:41.978Z,2.62
2024-03-09T02:44:43.581Z,2.77
2024-03-09T02:46:45.157Z,2.75
2024-03-09T02:48:47.213Z,2.78
2024-03-09T02:50:48.797Z,2.81
2024-03-09T02:52:50.343Z,2.86
2024-03-09T02:54:51.914Z,2.79
2024-03-09T02:56:53.516Z,2.80
2024-03-09T02:58:56.554Z,2.77
2024-03-09T03:00:58.214Z,2.79
2024-03-09T03:02:59.774Z,2.91
2024-03-09T03:05:01.384Z,3.01
2024-03-09T03:07:03.125Z,2.88
2024-03-09T03:09:05.619Z,3.05
2024-03-09T03:11:07.282Z,3.01
2024-03-09T03:13:09.061Z,3.02
2024-03-09T03:15:12.317Z,2.90
2024-03-09T03:17:13.966Z,2.56
2024-03-09T03:19:15.601Z,2.67
2024-03-09T03:21:17.278Z,2.49
2024-03-09T03:23:18.870Z,2.78
2024-03-09T03:25:20.402Z,2.90
2024-03-09T03:27:21.977Z,2.91
2024-03-09T03:29:23.523Z,2.90
2024-03-09T03:31:26.618Z,2.91
2024-03-09T03:33:28.150Z,2.97
2024-03-09T03:35:29.686Z,2.98
2024-03-09T03:37:31.307Z,3.13
2024-03-09T03:39:32.864Z,3.05
2024-03-09T03:41:34.413Z,3.21
2024-03-09T03:43:36.509Z,3.35
2024-03-09T03:45:38.681Z,3.38
2024-03-09T03:47:41.711Z,3.23
2024-03-09T03:49:43.295Z,3.08
2024-03-09T03:51:44.845Z,3.18
2024-03-09T03:53:46.653Z,3.34
2024-03-09T03:55:48.536Z,3.25
2024-03-09T03:57:52.025Z,3.10
2024-03-09T03:59:53.921Z,3.23
2024-03-09T04:01:55.596Z,3.33
2024-03-09T04:03:58.581Z,3.42
2024-03-09T04:06:00.261Z,3.51
2024-03-09T04:08:01.856Z,3.67
2024-03-09T04:10:03.885Z,3.68
2024-03-09T04:12:05.759Z,3.68
2024-03-09T04:14:07.714Z,3.51
2024-03-09T04:16:09.356Z,3.51
2024-03-09T04:18:11.116Z,3.65
2024-03-09T04:20:14.171Z,3.70
2024-03-09T04:22:15.818Z,3.74
2024-03-09T04:24:17.397Z,3.72
2024-03-09T04:26:18.989Z,3.79
2024-03-09T04:28:20.808Z,3.88
2024-03-09T04:30:22.404Z,3.97
2024-03-09T04:32:24.072Z,4.01
2024-03-09T04:34:25.639Z,3.95
2024-03-09T04:36:28.582Z,3.90
2024-03-09T04:38:30.152Z,3.65
2024-03-09T04:40:31.766Z,3.73
2024-03-09T04:42:33.357Z,3.75
2024-03-09T04:44:34.983Z,3.88
2024-03-09T04:46:36.672Z,3.96
2024-03-09T04:48:39.328Z,3.96
2024-03-09T04:50:40.930Z,3.96
2024-03-09T04:52:43.942Z,3.84
2024-03-09T04:54:45.589Z,3.81
2024-03-09T04:56:47.128Z,3.93
2024-03-09T04:58:48.768Z,3.99
2024-03-09T05:00:50.491Z,4.01
2024-03-09T05:02:52.323Z,4.00
2024-03-09T05:04:54.435Z,3.90
2024-03-09T05:06:56.012Z,4.00
2024-03-09T05:08:59.031Z,3.98
2024-03-09T05:11:00.676Z,3.85
2024-03-09T05:13:02.400Z,3.78
2024-03-09T05:15:04.828Z,3.78
2024-03-09T05:17:06.420Z,3.84
2024-03-09T05:19:08.030Z,3.72
2024-03-09T05:21:09.630Z,3.69
2024-03-09T05:23:14.358Z,3.68
2024-03-09T05:25:19.354Z,3.65
2024-03-09T05:27:20.908Z,3.57
2024-03-09T05:29:22.545Z,3.53
2024-03-09T05:31:25.532Z,3.40
2024-03-09T05:33:27.069Z,3.42
2024-03-09T05:35:30.326Z,3.39
2024-03-09T05:37:31.900Z,3.23
2024-03-09T05:39:33.529Z,3.33
2024-03-09T05:41:36.418Z,3.32
2024-03-09T05:43:38.020Z,3.24
2024-03-09T05:45:39.675Z,3.18
2024-03-09T05:47:41.209Z,3.22
2024-03-09T05:49:44.721Z,3.24
2024-03-09T05:51:46.342Z,3.17
2024-03-09T05:53:47.876Z,3.22
2024-03-09T05:55:49.560Z,3.15
2024-03-09T05:57:54.073Z,3.09
2024-03-09T05:59:55.614Z,3.12
2024-03-09T06:01:57.188Z,3.19
2024-03-09T06:03:58.714Z,3.13
2024-03-09T06:06:00.284Z,3.22
2024-03-09T06:08:01.884Z,3.17
2024-03-09T06:10:03.954Z,3.15
2024-03-09T06:12:06.256Z,3.19
2024-03-09T06:14:09.209Z,3.12
2024-03-09T06:16:10.778Z,3.14
2024-03-09T06:18:12.674Z,3.11
2024-03-09T06:20:16.267Z,2.90
2024-03-09T06:22:17.968Z,3.01
2024-03-09T06:24:19.494Z,3.04
2024-03-09T06:26:21.059Z,3.17
2024-03-09T06:28:22.660Z,3.14
2024-03-09T06:30:29.726Z,3.11
2024-03-09T06:32:33.564Z,3.05
2024-03-09T06:34:35.110Z,3.08
2024-03-09T06:36:36.699Z,3.15
2024-03-09T06:38:38.221Z,3.07
2024-03-09T06:40:41.195Z,3.10
2024-03-09T06:42:42.774Z,3.13
2024-03-09T06:44:44.324Z,3.06
2024-03-09T06:46:47.476Z,3.22
2024-03-09T06:48:49.031Z,3.19
2024-03-09T06:50:50.641Z,3.22
2024-03-09T06:52:52.233Z,3.18
2024-03-09T06:54:53.830Z,3.21
2024-03-09T06:56:55.438Z,3.24
2024-03-09T06:58:58.772Z,3.17
2024-03-09T07:01:00.381Z,3.16
2024-03-09T07:03:03.513Z,3.23
2024-03-09T07:05:05.850Z,3.23
2024-03-09T07:07:07.397Z,3.39
2024-03-09T07:09:08.969Z,3.38
2024-03-09T07:11:11.293Z,3.41
2024-03-09T07:13:12.932Z,3.43
2024-03-09T07:15:14.733Z,3.41
2024-03-09T07:17:16.308Z,3.59
2024-03-09T07:19:19.356Z,3.69
2024-03-09T07:21:20.962Z,3.74
2024-03-09T07:23:22.571Z,3.86
2024-03-09T07:25:26.966Z,3.86
2024-03-09T07:27:28.796Z,3.93
2024-03-09T07:29:30.323Z,3.95
2024-03-09T07:31:32.034Z,3.99
2024-03-09T07:33:33.650Z,3.96
2024-03-09T07:35:36.931Z,3.93
2024-03-09T07:37:38.476Z,3.99
2024-03-09T07:39:40.118Z,4.05
2024-03-09T07:41:41.750Z,4.12
2024-03-09T07:43:43.369Z,4.30
2024-03-09T07:45:44.938Z,4.36
2024-03-09T07:47:47.937Z,4.47
2024-03-09T07:49:49.592Z,4.37
2024-03-09T07:51:52.531Z,4.47
2024-03-09T07:53:54.135Z,4.56
2024-03-09T07:55:55.763Z,4.70
2024-03-09T07:58:08.935Z,4.75
2024-03-09T08:00:20.044Z,4.76
2024-03-09T08:02:21.721Z,4.73
2024-03-09T08:04:23.305Z,4.83
2024-03-09T08:06:24.842Z,4.93
2024-03-09T08:08:27.761Z,5.06
2024-03-09T08:10:29.708Z,5.04
2024-03-09T08:12:31.300Z,5.11
2024-03-09T08:14:32.849Z,5.22
2024-03-09T08:16:36.784Z,5.21
2024-03-09T08:18:38.329Z,5.20
2024-03-09T08:20:39.900Z,5.38
2024-03-09T08:22:42.060Z,5.43
2024-03-09T08:24:45.009Z,5.61
2024-03-09T08:26:49.421Z,5.54
2024-03-09T08:28:51.036Z,5.72
2024-03-09T08:30:55.080Z,5.83
2024-03-09T08:32:58.351Z,5.79
2024-03-09T08:35:00.034Z,5.99
2024-03-09T08:37:04.239Z,6.10
2024-03-09T08:39:05.785Z,6.09
2024-03-09T08:41:08.771Z,6.16
2024-03-09T08:43:10.344Z,6.18
2024-03-09T08:45:11.977Z,6.26
2024-03-09T08:47:13.594Z,6.39
2024-03-09T08:49:15.219Z,6.48
2024-03-09T08:51:16.804Z,6.54
2024-03-09T08:53:18.962Z,6.53
2024-03-09T08:55:20.809Z,6.71
2024-03-09T08:57:23.734Z,6.58
2024-03-09T08:59:25.304Z,6.75
2024-03-09T09:01:26.925Z,6.83
2024-03-09T09:03:28.646Z,6.92
2024-03-09T09:05:30.667Z,6.92
2024-03-09T09:07:32.346Z,7.07
2024-03-09T09:09:33.896Z,7.11
2024-03-09T09:11:35.512Z,7.23
2024-03-09T09:13:38.484Z,7.29
2024-03-09T09:15:40.044Z,7.40
2024-03-09T09:17:41.705Z,7.44
2024-03-09T09:19:43.314Z,7.57
2024-03-09T09:21:44.880Z,7.66
2024-03-09T09:23:46.460Z,7.68
2024-03-09T09:25:48.072Z,7.79
2024-03-09T09:27:49.699Z,7.75
2024-03-09T09:29:52.639Z,7.82
2024-03-09T09:31:54.223Z,7.86
2024-03-09T09:33:55.895Z,7.98
2024-03-09T09:35:57.475Z,7.95
2024-03-09T09:37:59.789Z,8.06
2024-03-09T09:40:01.893Z,8.16
2024-03-09T09:42:03.613Z,8.22
2024-03-09T09:44:06.451Z,8.30
2024-03-09T09:46:09.464Z,8.21
2024-03-09T09:48:11.137Z,8.41
2024-03-09T09:50:14.708Z,8.49
2024-03-09T09:52:16.741Z,8.54
2024-03-09T09:54:21.105Z,8.70
2024-03-09T09:56:22.710Z,8.76
2024-03-09T09:58:25.628Z,8.76
2024-03-09T10:00:27.232Z,8.86
2024-03-09T10:02:30.945Z,8.92
2024-03-09T10:04:36.442Z,9.00
2024-03-09T10:06:38.041Z,9.06
2024-03-09T10:08:47.877Z,9.09
2024-03-09T10:10:49.943Z,9.14
2024-03-09T10:13:04.471Z,9.27
2024-03-09T10:15:12.594Z,9.24
2024-03-09T10:17:14.269Z,9.22
2024-03-09T10:19:18.185Z,9.35
2024-03-09T10:21:26.709Z,9.50
2024-03-09T10:23:28.314Z,9.52
2024-03-09T10:25:30.049Z,9.60
2024-03-09T10:27:32.409Z,9.72
2024-03-09T10:29:34.918Z,9.85
2024-03-09T10:31:39.133Z,9.88
2024-03-09T10:33:40.824Z,10.04
2024-03-09T10:35:44.999Z,10.07
2024-03-09T10:37:48.637Z,10.17
2024-03-09T10:39:50.222Z,10.29
2024-03-09T10:41:52.749Z,10.33
2024-03-09T10:43:57.145Z,10.41
2024-03-09T10:46:01.603Z,10.39
2024-03-09T10:48:04.934Z,10.53
2024-03-09T10:50:12.877Z,10.50
2024-03-09T10:52:20.255Z,10.61
2024-03-09T10:54:30.257Z,10.69
2024-03-09T10:56:32.103Z,10.72
2024-03-09T10:58:34.609Z,10.74
2024-03-09T11:00:36.258Z,10.72
2024-03-09T11:02:38.426Z,10.78
2024-03-09T11:04:41.664Z,10.81
2024-03-09T11:06:43.974Z,10.67
2024-03-09T11:08:48.527Z,10.77
2024-03-09T11:10:50.579Z,10.77
2024-03-09T11:12:53.439Z,10.85
2024-03-09T11:14:57.514Z,10.85
2024-03-09T11:16:59.984Z,10.90
2024-03-09T11:19:02.894Z,10.95
2024-03-09T11:21:04.786Z,10.90
2024-03-09T11:23:06.399Z,11.00
2024-03-09T11:25:10.094Z,11.01
2024-03-09T11:27:11.698Z,11.01
2024-03-09T11:29:13.440Z,10.99
2024-03-09T11:31:15.906Z,11.05
2024-03-09T11:33:17.618Z,11.16
2024-03-09T11:35:29.998Z,11.24
2024-03-09T11:37:44.925Z,11.31
2024-03-09T11:39:47.379Z,11.28
2024-03-09T11:41:52.008Z,11.47
2024-03-09T11:43:53.676Z,11.49
2024-03-09T11:45:55.382Z,11.64
2024-03-09T11:47:58.397Z,11.69
2024-03-09T11:50:02.692Z,11.66
2024-03-09T11:52:06.167Z,11.73
2024-03-09T11:54:11.468Z,11.75
2024-03-09T11:56:13.145Z,11.65
2024-03-09T11:58:16.470Z,11.68
2024-03-09T12:00:18.924Z,11.46
2024-03-09T12:02:20.580Z,11.71
2024-03-09T12:04:22.203Z,11.75
2024-03-09T12:06:24.116Z,11.73
2024-03-09T12:08:26.005Z,11.83
2024-03-09T12:10:27.680Z,11.82
2024-03-09T12:12:29.278Z,11.76
2024-03-09T12:14:32.272Z,11.87
2024-03-09T12:16:34.804Z,11.93
2024-03-09T12:18:36.433Z,11.77
2024-03-09T12:20:38.626Z,12.14
2024-03-09T12:22:40.401Z,12.15
2024-03-09T12:24:42.426Z,12.25
2024-03-09T12:26:44.279Z,12.25
2024-03-09T12:28:45.989Z,12.33
2024-03-09T12:30:50.808Z,12.35
2024-03-09T12:32:52.522Z,12.56
2024-03-09T12:34:54.317Z,12.56
2024-03-09T12:36:55.952Z,12.59
2024-03-09T12:39:09.084Z,12.47
2024-03-09T12:41:25.286Z,12.67
2024-03-09T12:43:29.262Z,12.62
2024-03-09T12:45:30.807Z,12.55
2024-03-09T12:47:33.875Z,12.68
2024-03-09T12:49:35.577Z,12.75
2024-03-09T12:51:37.256Z,12.41
2024-03-09T12:53:39.093Z,12.45
2024-03-09T12:55:40.744Z,12.27
2024-03-09T12:57:43.141Z,12.46
2024-03-09T12:59:44.899Z,12.40
2024-03-09T13:01:46.524Z,12.44
2024-03-09T13:03:57.704Z,12.52
2024-03-09T13:06:01.066Z,12.60
2024-03-09T13:08:02.991Z,12.58
2024-03-09T13:10:07.450Z,12.79
2024-03-09T13:12:10.596Z,12.84
2024-03-09T13:14:12.378Z,13.11
2024-03-09T13:16:14.037Z,13.19
2024-03-09T13:18:15.709Z,13.06
2024-03-09T13:20:19.418Z,13.44
2024-03-09T13:22:21.111Z,13.22
2024-03-09T13:24:22.997Z,13.28
2024-03-09T13:26:25.645Z,13.23
2024-03-09T13:28:27.282Z,13.47
2024-03-09T13:30:29.002Z,13.35
2024-03-09T13:32:30.591Z,13.72
2024-03-09T13:34:32.813Z,13.73
2024-03-09T13:36:35.922Z,13.77
2024-03-09T13:38:37.494Z,14.07
2024-03-09T13:40:39.214Z,14.11
2024-03-09T13:42:41.647Z,14.09
2024-03-09T13:44:43.260Z,13.53
2024-03-09T13:46:45.414Z,13.90
2024-03-09T13:48:47.163Z,13.77
2024-03-09T13:50:48.760Z,13.41
2024-03-09T13:52:51.764Z,13.36
2024-03-09T13:54:53.448Z,13.42
2024-03-09T13:56:55.120Z,13.75
2024-03-09T13:58:56.765Z,13.71
2024-03-09T14:00:58.433Z,13.47
2024-03-09T14:03:00.191Z,13.61
2024-03-09T14:05:01.894Z,13.29
2024-03-09T14:07:09.008Z,13.44
2024-03-09T14:09:12.785Z,13.37
2024-03-09T14:11:14.456Z,13.18
2024-03-09T14:13:16.251Z,12.98
2024-03-09T14:15:17.812Z,12.94
2024-03-09T14:17:19.508Z,12.91
2024-03-09T14:19:21.156Z,13.10
2024-03-09T14:21:22.765Z,13.06
2024-03-09T14:23:24.603Z,13.02
2024-03-09T14:25:27.689Z,12.84
2024-03-09T14:27:29.333Z,12.92
2024-03-09T14:29:31.019Z,12.73
2024-03-09T14:31:32.697Z,12.73
2024-03-09T14:33:34.296Z,12.89
2024-03-09T14:35:36.116Z,12.78
2024-03-09T14:37:37.743Z,12.83
2024-03-09T14:39:39.907Z,12.74
2024-03-09T14:41:43.038Z,12.85
2024-03-09T14:43:44.628Z,12.74
2024-03-09T14:45:46.190Z,12.55
2024-03-09T14:47:48.324Z,12.56
2024-03-09T14:49:50.076Z,12.68
2024-03-09T14:51:51.698Z,12.61
2024-03-09T14:53:54.562Z,12.50
2024-03-09T14:55:56.598Z,12.46
2024-03-09T14:58:00.327Z,12.50
2024-03-09T15:00:02.892Z,12.62
2024-03-09T15:02:04.951Z,12.44
2024-03-09T15:04:06.669Z,12.54
2024-03-09T15:06:08.530Z,12.55
2024-03-09T15:08:10.362Z,12.47
2024-03-09T15:10:12.262Z,12.40
2024-03-09T15:12:13.891Z,12.43
2024-03-09T15:14:16.959Z,12.51
2024-03-09T15:16:18.858Z,12.46
2024-03-09T15:18:20.726Z,12.35
2024-03-09T15:20:24.020Z,12.45
2024-03-09T15:22:26.860Z,12.43
2024-03-09T15:24:28.490Z,12.24
2024-03-09T15:26:31.019Z,12.36
2024-03-09T15:28:33.048Z,12.31
2024-03-09T15:30:36.116Z,12.32
2024-03-09T15:32:37.764Z,12.28
2024-03-09T15:34:39.430Z,12.18
2024-03-09T15:36:41.030Z,12.16
2024-03-09T15:38:43.608Z,11.94
2024-03-09T15:40:45.523Z,11.86
2024-03-09T15:42:47.582Z,12.10
2024-03-09T15:44:49.201Z,11.79
2024-03-09T15:46:52.182Z,11.73
2024-03-09T15:48:53.843Z,12.03
2024-03-09T15:50:55.453Z,11.94
2024-03-09T15:52:57.126Z,11.84
2024-03-09T15:54:58.873Z,11.89
2024-03-09T15:57:00.512Z,11.80
2024-03-09T15:59:02.255Z,11.74
2024-03-09T16:01:04.346Z,11.80
2024-03-09T16:03:07.367Z,11.73
2024-03-09T16:05:09.729Z,11.74
2024-03-09T16:07:11.499Z,11.77
2024-03-09T16:09:13.707Z,11.69
2024-03-09T16:11:15.688Z,11.68
2024-03-09T16:13:17.428Z,11.71
2024-03-09T16:15:19.216Z,11.74
2024-03-09T16:17:20.829Z,11.47
2024-03-09T16:19:23.820Z,11.49
2024-03-09T16:21:25.446Z,11.55
2024-03-09T16:23:27.062Z,11.51
2024-03-09T16:25:33.166Z,11.59
2024-03-09T16:27:35.262Z,11.48
2024-03-09T16:29:36.936Z,11.59
2024-03-09T16:31:38.528Z,11.41
2024-03-09T16:33:40.174Z,11.22
2024-03-09T16:35:44.437Z,11.51
2024-03-09T16:37:45.999Z,11.48
2024-03-09T16:39:47.577Z,11.43
2024-03-09T16:41:49.109Z,11.45
2024-03-09T16:43:50.688Z,11.36
2024-03-09T16:45:52.231Z,11.32
2024-03-09T16:47:54.019Z,11.22
2024-03-09T16:49:55.566Z,11.21
2024-03-09T16:51:58.564Z,11.14
2024-03-09T16:54:00.157Z,11.11
2024-03-09T16:56:01.884Z,10.97
2024-03-09T16:58:03.771Z,10.98
2024-03-09T17:00:06.662Z,10.97
2024-03-09T17:02:08.268Z,11.05
2024-03-09T17:04:09.902Z,10.91
2024-03-09T17:06:11.499Z,10.93
2024-03-09T17:08:14.585Z,10.85
2024-03-09T17:10:16.644Z,10.83
2024-03-09T17:12:18.286Z,10.80
2024-03-09T17:14:20.006Z,10.80
2024-03-09T17:16:21.669Z,10.62
2024-03-09T17:18:23.306Z,10.74
2024-03-09T17:20:28.329Z,10.71
2024-03-09T17:22:31.424Z,10.65
2024-03-09T17:24:34.317Z,10.61
2024-03-09T17:26:36.078Z,10.61
2024-03-09T17:28:37.643Z,10.61
2024-03-09T17:30:39.205Z,10.58
2024-03-09T17:32:45.545Z,10.51
2024-03-09T17:34:47.974Z,10.49
2024-03-09T17:36:49.565Z,10.50
2024-03-09T17:38:51.140Z,10.55
2024-03-09T17:40:54.066Z,10.45
2024-03-09T17:42:55.874Z,10.51
2024-03-09T17:44:57.612Z,10.52
2024-03-09T17:46:59.270Z,10.44
2024-03-09T17:49:00.899Z,10.41
2024-03-09T17:51:02.487Z,10.43
2024-03-09T17:53:04.495Z,10.37
2024-03-09T17:55:07.841Z,10.36
2024-03-09T17:57:10.773Z,10.46
2024-03-09T17:59:12.543Z,10.43
2024-03-09T18:01:14.261Z,10.32
2024-03-09T18:03:15.920Z,10.29
2024-03-09T18:05:17.759Z,10.25
2024-03-09T18:07:19.341Z,10.28
2024-03-09T18:09:20.966Z,10.22
2024-03-09T18:11:22.699Z,10.24
2024-03-09T18:13:25.707Z,10.27
2024-03-09T18:15:27.575Z,9.98
2024-03-09T18:17:29.211Z,10.20
2024-03-09T18:19:30.864Z,10.18
2024-03-09T18:21:32.415Z,10.08
2024-03-09T18:23:34.115Z,10.08
2024-03-09T18:25:36.580Z,10.19
2024-03-09T18:27:38.126Z,10.16
2024-03-09T18:29:41.034Z,10.07
2024-03-09T18:31:44.002Z,10.00
2024-03-09T18:33:46.728Z,10.03
2024-03-09T18:35:48.754Z,10.04
2024-03-09T18:37:50.999Z,10.00
2024-03-09T18:39:52.591Z,9.95
2024-03-09T18:41:54.144Z,10.02
2024-03-09T18:43:55.788Z,9.98
2024-03-09T18:45:58.898Z,9.98
2024-03-09T18:48:00.536Z,9.93
2024-03-09T18:50:02.304Z,9.96
2024-03-09T18:52:04.430Z,10.04
2024-03-09T18:54:06.045Z,10.01
2024-03-09T18:56:07.744Z,9.93
2024-03-09T18:58:09.569Z,9.96
2024-03-09T19:00:13.875Z,9.87
2024-03-09T19:02:16.808Z,9.89
2024-03-09T19:04:18.493Z,9.71
2024-03-09T19:06:20.036Z,9.79
2024-03-09T19:08:21.632Z,9.64
2024-03-09T19:10:23.730Z,9.54
2024-03-09T19:12:25.314Z,9.64
2024-03-09T19:14:26.977Z,9.65
2024-03-09T19:16:28.536Z,9.67
2024-03-09T19:18:31.496Z,9.70
2024-03-09T19:20:33.083Z,9.57
2024-03-09T19:22:34.640Z,9.50
2024-03-09T19:24:36.225Z,9.48
2024-03-09T19:26:43.310Z,9.52
2024-03-09T19:28:44.941Z,9.40
2024-03-09T19:30:46.573Z,9.45
2024-03-09T19:32:49.278Z,9.51
2024-03-09T19:34:52.240Z,9.39
2024-03-09T19:36:53.804Z,9.43
2024-03-09T19:38:55.461Z,9.26
2024-03-09T19:40:57.003Z,9.37
2024-03-09T19:42:59.482Z,9.30
2024-03-09T19:45:01.205Z,9.32
2024-03-09T19:47:02.886Z,9.39
2024-03-09T19:49:04.482Z,9.31
2024-03-09T19:51:07.368Z,9.29
2024-03-09T19:53:08.952Z,9.32
2024-03-09T19:55:10.718Z,9.29
2024-03-09T19:57:12.445Z,9.29
2024-03-09T19:59:14.172Z,9.32
2024-03-09T20:01:15.807Z,9.31
2024-03-09T20:03:17.491Z,9.27
2024-03-09T20:05:19.364Z,9.39
2024-03-09T20:07:22.309Z,9.44
2024-03-09T20:09:23.949Z,9.44
2024-03-09T20:11:25.663Z,9.45
2024-03-09T20:13:27.302Z,9.52
2024-03-09T20:15:29.337Z,9.43
2024-03-09T20:17:31.297Z,9.33
2024-03-09T20:19:32.980Z,9.39
2024-03-09T20:21:34.557Z,9.40
2024-03-09T20:23:37.531Z,9.29
2024-03-09T20:25:39.111Z,9.31
2024-03-09T20:27:41.360Z,9.32
2024-03-09T20:29:42.933Z,9.25
2024-03-09T20:31:44.470Z,9.09
2024-03-09T20:33:46.072Z,9.19
2024-03-09T20:35:47.728Z,9.07
2024-03-09T20:37:49.727Z,9.12
2024-03-09T20:39:52.783Z,9.09
2024-03-09T20:41:54.359Z,9.14
2024-03-09T20:43:55.897Z,9.11
2024-03-09T20:45:57.506Z,9.03
2024-03-09T20:47:59.108Z,9.09
2024-03-09T20:50:00.779Z,8.97
2024-03-09T20:52:02.568Z,8.95
2024-03-09T20:54:04.416Z,8.96
2024-03-09T20:56:07.706Z,8.89
2024-03-09T20:58:09.294Z,8.85
2024-03-09T21:00:12.181Z,8.90
2024-03-09T21:02:13.790Z,8.86
2024-03-09T21:04:15.385Z,8.88
2024-03-09T21:06:17.059Z,8.95
2024-03-09T21:08:18.734Z,8.91
2024-03-09T21:10:20.327Z,8.96
2024-03-09T21:12:23.244Z,8.92
2024-03-09T21:14:24.862Z,8.89
2024-03-09T21:16:26.448Z,8.92
2024-03-09T21:18:28.228Z,8.85
2024-03-09T21:20:30.002Z,8.79
2024-03-09T21:22:31.611Z,8.70
2024-03-09T21:24:33.457Z,8.64
2024-03-09T21:26:35.080Z,8.62
2024-03-09T21:28:38.030Z,8.54
2024-03-09T21:30:39.776Z,8.49
2024-03-09T21:32:42.325Z,8.54
2024-03-09T21:34:43.974Z,8.43
2024-03-09T21:36:45.635Z,8.22
2024-03-09T21:38:47.377Z,8.41
2024-03-09T21:40:48.983Z,8.46
2024-03-09T21:42:51.308Z,8.48
2024-03-09T21:44:54.235Z,8.53
2024-03-09T21:46:55.834Z,8.53
2024-03-09T21:48:57.496Z,8.56
2024-03-09T21:51:07.217Z,8.51
2024-03-09T21:53:10.445Z,8.38
2024-03-09T21:55:12.174Z,8.54
2024-03-09T21:57:13.769Z,8.45
2024-03-09T21:59:15.353Z,8.51
2024-03-09T22:01:18.285Z,8.54
2024-03-09T22:03:19.835Z,8.48
2024-03-09T22:05:22.195Z,8.54
2024-03-09T22:07:23.849Z,8.56
2024-03-09T22:09:25.418Z,8.60
2024-03-09T22:11:27.156Z,8.55
2024-03-09T22:13:28.832Z,8.46
2024-03-09T22:15:30.388Z,8.53
2024-03-09T22:17:33.564Z,8.58
2024-03-09T22:19:35.281Z,8.57
2024-03-09T22:21:36.877Z,8.57
2024-03-09T22:23:38.564Z,8.61
2024-03-09T22:25:40.152Z,8.52
2024-03-09T22:27:41.824Z,8.10
2024-03-09T22:29:44.923Z,8.47
2024-03-09T22:31:46.523Z,8.47
2024-03-09T22:33:49.450Z,8.39
2024-03-09T22:35:51.263Z,8.39
2024-03-09T22:37:52.985Z,8.45
2024-03-09T22:39:54.682Z,8.47
2024-03-09T22:41:56.311Z,8.40
2024-03-09T22:43:58.180Z,8.31
2024-03-09T22:45:59.744Z,8.44
2024-03-09T22:48:01.293Z,8.37
2024-03-09T22:50:05.274Z,8.36
2024-03-09T22:52:07.732Z,8.30
2024-03-09T22:54:09.311Z,8.27
2024-03-09T22:56:10.933Z,8.30
2024-03-09T22:58:12.519Z,8.21
2024-03-09T23:00:15.818Z,8.24
2024-03-09T23:02:17.699Z,8.26
2024-03-09T23:04:19.364Z,8.28
2024-03-09T23:06:22.281Z,8.20
2024-03-09T23:08:23.922Z,8.29
2024-03-09T23:10:25.787Z,8.34
2024-03-09T23:12:27.694Z,8.35
2024-03-09T23:14:29.397Z,8.35
2024-03-09T23:16:31.549Z,8.43
2024-03-09T23:18:33.413Z,8.40
2024-03-09T23:20:35.248Z,8.38
2024-03-09T23:22:38.410Z,8.40
2024-03-09T23:24:39.999Z,8.40
2024-03-09T23:26:41.624Z,8.43
2024-03-09T23:28:43.201Z,8.35
2024-03-09T23:30:44.817Z,8.46
2024-03-09T23:32:47.124Z,8.48
2024-03-09T23:34:48.840Z,8.51
2024-03-09T23:36:50.629Z,8.52
2024-03-09T23:38:53.608Z,8.49
2024-03-09T23:40:55.466Z,8.42
2024-03-09T23:42:57.063Z,8.44
2024-03-09T23:44:58.690Z,8.47
2024-03-09T23:47:00.238Z,8.46
2024-03-09T23:49:01.920Z,8.46
2024-03-09T23:51:04.020Z,8.17
2024-03-09T23:53:05.691Z,8.29
2024-03-09T23:55:09.296Z,8.28
2024-03-09T23:57:10.891Z,8.06
2024-03-09T23:59:12.532Z,7.98
